This is the latest recevied weather packets stored in our database for station/object WH6VH. If no packets are shown the sender has not sent any weather packets the latest 10 day(s).
| Time | Temp. | Humidity | Pressure | Rain* | Wind** | Luminosity | Snow |
|---|---|---|---|---|---|---|---|
| 1777667403 | 13.89° C | 30% | 1022.7 hPa | 0 mm | - | - | - |
| 1777666803 | 15.56° C | 27% | 1022.7 hPa | 0 mm | - | - | - |
| 1777665904 | 15° C | 32% | 1022.8 hPa | 0 mm | - | - | - |
| 1777662604 | 14.44° C | 33% | 1023.2 hPa | 0 mm | - | - | - |
| 1777661703 | 13.33° C | 33% | 1023.4 hPa | 0 mm | - | - | - |
| 1777660804 | 12.78° C | 35% | 1023.6 hPa | 0 mm | - | - | - |
| 1777658705 | 12.78° C | 38% | 1023.9 hPa | 0 mm | - | - | - |
| 1777657503 | 11.11° C | 39% | 1024.2 hPa | 0 mm | - | - | - |
| 1777656604 | 12.22° C | 39% | 1024.3 hPa | 0 mm | - | - | - |
| 1777656303 | 12.22° C | 40% | 1024.4 hPa | 0 mm | - | - | - |
| 1777655104 | 11.67° C | 39% | 1024.6 hPa | 0 mm | - | - | - |
| 1777647604 | 8.33° C | 66% | 1024.9 hPa | 0 mm | - | - | - |
| 1777646404 | 6.67° C | 74% | 1024.9 hPa | 0 mm | - | - | - |
| 1777645503 | 5° C | 82% | 1024.9 hPa | 0 mm | - | - | - |
| 1777641004 | 1.67° C | 93% | 1024.6 hPa | 0 mm | - | - | - |
| 1777637404 | 0.56° C | 92% | 1024.1 hPa | 0 mm | - | - | - |
| 1777635304 | 1.11° C | 92% | 1023.9 hPa | 0 mm | - | - | - |
| 1777634104 | 1.11° C | 92% | 1024 hPa | 0 mm | - | - | - |
| 1777633504 | 1.11° C | 92% | 1024.1 hPa | 0 mm | - | - | - |
| 1777629603 | 1.11° C | 92% | 1024 hPa | 0 mm | - | - | - |
| 1777628105 | 1.67° C | 91% | 1023.9 hPa | 0 mm | - | - | - |
| 1777627804 | 1.67° C | 91% | 1024 hPa | 0 mm | - | - | - |
| 1777626903 | 2.22° C | 91% | 1024.1 hPa | 0 mm | - | - | - |
| 1777626304 | 2.22° C | 91% | 1024.1 hPa | 0 mm | - | - | - |
| 1777623604 | 2.78° C | 90% | 1024.4 hPa | 0 mm | - | - | - |
* Rain latest hour (hover to see other rain measurements)
** Current wind speed in m/s (hover to see current wind gust speed)